createdAt,value
2022-07-29T00:02:26.872Z,5.00
2022-07-29T00:04:54.192Z,4.47
2022-07-29T00:07:21.415Z,4.57
2022-07-29T00:09:51.687Z,4.97
2022-07-29T00:12:25.138Z,5.00
2022-07-29T00:14:53.827Z,4.90
2022-07-29T00:17:21.057Z,5.35
2022-07-29T00:19:48.228Z,4.50
2022-07-29T00:22:15.558Z,4.57
2022-07-29T00:24:43.003Z,4.70
2022-07-29T00:27:10.218Z,4.50
2022-07-29T00:29:37.529Z,4.88
2022-07-29T00:32:04.842Z,5.45
2022-07-29T00:34:51.167Z,4.90
2022-07-29T00:37:18.377Z,4.20
2022-07-29T00:39:45.560Z,4.60
2022-07-29T00:42:12.813Z,4.55
2022-07-29T00:44:40.676Z,4.55
2022-07-29T00:47:08.400Z,4.50
2022-07-29T00:49:35.785Z,4.85
2022-07-29T00:52:08.528Z,4.88
2022-07-29T00:54:43.929Z,4.18
2022-07-29T00:57:12.409Z,4.55
2022-07-29T00:59:39.672Z,4.90
2022-07-29T01:02:06.963Z,4.55
2022-07-29T01:04:34.285Z,4.68
2022-07-29T01:07:05.034Z,4.75
2022-07-29T01:09:45.761Z,4.88
2022-07-29T01:12:16.852Z,5.00
2022-07-29T01:14:44.214Z,4.90
2022-07-29T01:17:11.347Z,4.57
2022-07-29T01:19:58.907Z,5.35
2022-07-29T01:22:33.024Z,4.68
2022-07-29T01:25:02.985Z,5.55
2022-07-29T01:27:38.992Z,4.28
2022-07-29T01:30:07.116Z,4.80
2022-07-29T01:32:37.778Z,5.57
2022-07-29T01:35:16.949Z,4.85
2022-07-29T01:38:01.185Z,5.45
2022-07-29T01:40:35.396Z,5.03
2022-07-29T01:43:11.141Z,4.72
2022-07-29T01:46:14.081Z,5.03
2022-07-29T01:48:49.526Z,5.15
2022-07-29T01:51:28.335Z,5.00
2022-07-29T01:54:14.890Z,4.88
2022-07-29T01:56:44.173Z,3.83
2022-07-29T01:59:11.974Z,4.30
2022-07-29T02:01:40.937Z,4.63
2022-07-29T02:04:10.838Z,4.80
2022-07-29T02:06:39.204Z,4.85
2022-07-29T02:09:08.540Z,4.60
2022-07-29T02:11:37.229Z,4.55
2022-07-29T02:14:05.608Z,5.05
2022-07-29T02:16:33.936Z,4.00
2022-07-29T02:19:03.008Z,4.97
2022-07-29T02:21:31.714Z,5.07
2022-07-29T02:24:01.156Z,5.40
2022-07-29T02:26:28.775Z,5.10
2022-07-29T02:28:57.194Z,4.97
2022-07-29T02:31:26.025Z,4.82
2022-07-29T02:33:54.748Z,5.10
2022-07-29T02:36:23.325Z,5.18
2022-07-29T02:38:51.571Z,4.97
2022-07-29T02:41:39.046Z,5.38
2022-07-29T02:44:29.995Z,4.30
2022-07-29T02:47:03.040Z,4.80
2022-07-29T02:49:42.563Z,4.30
2022-07-29T02:52:17.864Z,4.60
2022-07-29T02:54:53.414Z,4.53
2022-07-29T02:57:24.701Z,4.50
2022-07-29T02:59:53.259Z,4.53
2022-07-29T03:02:20.624Z,4.50
2022-07-29T03:04:50.225Z,4.32
2022-07-29T03:07:19.766Z,4.03
2022-07-29T03:09:47.708Z,4.40
2022-07-29T03:12:15.881Z,4.28
2022-07-29T03:14:43.094Z,4.63
2022-07-29T03:17:11.129Z,4.10
2022-07-29T03:19:38.510Z,5.15
2022-07-29T03:22:05.746Z,4.30
2022-07-29T03:24:34.953Z,4.80
2022-07-29T03:27:02.653Z,4.13
2022-07-29T03:29:33.408Z,4.43
2022-07-29T03:32:01.383Z,4.20
2022-07-29T03:34:30.024Z,4.50
2022-07-29T03:36:57.166Z,4.38
2022-07-29T03:39:26.113Z,4.57
2022-07-29T03:41:55.369Z,4.10
2022-07-29T03:44:23.501Z,3.90
2022-07-29T03:46:52.623Z,3.63
2022-07-29T03:49:21.582Z,3.45
2022-07-29T03:51:49.251Z,3.72
2022-07-29T03:54:16.763Z,2.80
2022-07-29T03:56:47.389Z,2.92
2022-07-29T03:59:15.610Z,3.00
2022-07-29T04:01:43.057Z,3.30
2022-07-29T04:04:10.558Z,3.00
2022-07-29T04:06:44.497Z,2.70
2022-07-29T04:09:13.075Z,3.05
2022-07-29T04:12:02.012Z,2.78
2022-07-29T04:14:28.129Z,2.00
2022-07-29T04:16:55.257Z,2.00
2022-07-29T04:19:22.404Z,2.08
2022-07-29T04:21:49.726Z,2.45
2022-07-29T04:24:17.445Z,2.53
2022-07-29T04:26:45.174Z,1.95
2022-07-29T04:29:13.085Z,2.40
2022-07-29T04:31:40.294Z,2.13
2022-07-29T04:34:07.682Z,2.20
2022-07-29T04:36:34.958Z,1.85
2022-07-29T04:39:02.360Z,1.92
2022-07-29T04:41:33.098Z,1.90
2022-07-29T04:44:06.801Z,2.20
2022-07-29T04:46:34.202Z,2.42
2022-07-29T04:49:01.536Z,2.50
2022-07-29T04:51:28.862Z,2.30
2022-07-29T04:53:55.993Z,2.55
2022-07-29T04:56:23.237Z,2.20
2022-07-29T04:58:50.469Z,2.72
2022-07-29T05:01:17.850Z,2.63
2022-07-29T05:03:46.136Z,2.30
2022-07-29T05:06:13.389Z,2.20
2022-07-29T05:08:41.937Z,3.03
2022-07-29T05:11:12.160Z,2.80
2022-07-29T05:13:46.675Z,2.42
2022-07-29T05:16:14.827Z,2.40
2022-07-29T05:18:42.395Z,2.10
2022-07-29T05:21:09.553Z,2.40
2022-07-29T05:23:36.721Z,2.67
2022-07-29T05:26:03.953Z,2.60
2022-07-29T05:28:34.497Z,2.70
2022-07-29T05:31:01.746Z,2.90
2022-07-29T05:33:36.199Z,3.13
2022-07-29T05:36:06.462Z,3.00
2022-07-29T05:38:33.969Z,3.58
2022-07-29T05:41:01.464Z,3.63
2022-07-29T05:43:29.576Z,4.05
2022-07-29T05:45:57.194Z,4.45
2022-07-29T05:48:24.556Z,3.92
2022-07-29T05:50:51.730Z,4.20
2022-07-29T05:53:20.585Z,3.88
2022-07-29T05:55:48.802Z,3.28
2022-07-29T05:58:16.066Z,4.10
2022-07-29T06:00:43.312Z,4.07
2022-07-29T06:03:10.513Z,4.03
2022-07-29T06:05:37.784Z,4.10
2022-07-29T06:08:08.362Z,3.53
2022-07-29T06:10:39.180Z,3.28
2022-07-29T06:13:06.383Z,3.70
2022-07-29T06:15:34.430Z,3.00
2022-07-29T06:18:02.320Z,3.67
2022-07-29T06:20:33.250Z,3.38
2022-07-29T06:23:00.988Z,4.15
2022-07-29T06:25:30.442Z,3.95
2022-07-29T06:30:24.949Z,3.83
2022-07-29T06:32:52.225Z,3.90
2022-07-29T06:35:41.240Z,3.47
2022-07-29T06:38:09.530Z,4.07
2022-07-29T06:41:07.077Z,4.20
2022-07-29T06:43:36.192Z,3.97
2022-07-29T06:46:18.693Z,3.67
2022-07-29T06:48:46.817Z,3.90
2022-07-29T06:51:14.055Z,4.25
2022-07-29T06:54:00.581Z,3.75
2022-07-29T06:56:28.987Z,4.57
2022-07-29T06:58:56.171Z,4.75
2022-07-29T07:01:23.353Z,4.35
2022-07-29T07:03:50.739Z,4.82
2022-07-29T07:06:17.962Z,3.95
2022-07-29T07:08:45.110Z,3.67
2022-07-29T07:11:12.510Z,3.70
2022-07-29T07:13:39.674Z,3.75
2022-07-29T07:16:06.881Z,4.53
2022-07-29T07:18:34.252Z,4.43
2022-07-29T07:21:02.443Z,3.85
2022-07-29T07:23:29.661Z,4.28
2022-07-29T07:25:57.009Z,5.18
2022-07-29T07:28:24.706Z,5.13
2022-07-29T07:30:52.660Z,6.13
2022-07-29T07:33:20.313Z,5.57
2022-07-29T07:35:47.635Z,5.20
2022-07-29T07:38:15.320Z,5.00
2022-07-29T07:40:42.864Z,5.35
2022-07-29T07:43:10.051Z,5.32
2022-07-29T07:45:38.379Z,5.10
2022-07-29T07:48:06.089Z,4.90
2022-07-29T07:50:33.333Z,4.68
2022-07-29T07:53:02.952Z,5.38
2022-07-29T07:55:42.457Z,6.18
2022-07-29T07:58:17.440Z,5.28
2022-07-29T08:00:44.908Z,5.03
2022-07-29T08:03:16.850Z,6.05
2022-07-29T08:05:44.598Z,5.18
2022-07-29T08:08:11.844Z,4.55
2022-07-29T08:10:54.175Z,5.00
2022-07-29T08:13:22.181Z,5.05
2022-07-29T08:15:58.320Z,4.78
2022-07-29T08:18:26.128Z,5.07
2022-07-29T08:20:53.370Z,5.30
2022-07-29T08:23:20.617Z,4.78
2022-07-29T08:25:50.318Z,4.30
2022-07-29T08:28:18.006Z,4.32
2022-07-29T08:30:45.360Z,4.63
2022-07-29T08:33:12.669Z,4.90
2022-07-29T08:35:41.162Z,5.00
2022-07-29T08:38:08.343Z,5.23
2022-07-29T08:40:35.641Z,4.90
2022-07-29T08:43:07.103Z,4.50
2022-07-29T08:45:52.906Z,4.38
2022-07-29T08:48:21.124Z,4.47
2022-07-29T08:50:49.403Z,4.60
2022-07-29T08:53:18.051Z,4.75
2022-07-29T08:55:46.349Z,4.50
2022-07-29T08:58:15.611Z,4.28
2022-07-29T09:00:44.588Z,3.97
2022-07-29T09:05:47.491Z,3.65
2022-07-29T09:08:16.287Z,3.65
2022-07-29T09:10:43.886Z,4.15
2022-07-29T09:13:11.321Z,3.55
2022-07-29T09:15:38.547Z,3.92
2022-07-29T09:18:05.744Z,4.07
2022-07-29T09:20:53.409Z,3.63
2022-07-29T09:23:23.966Z,3.75
2022-07-29T09:25:51.868Z,3.50
2022-07-29T09:28:19.850Z,3.30
2022-07-29T09:30:54.438Z,3.20
2022-07-29T09:33:22.596Z,3.22
2022-07-29T09:36:02.065Z,3.38
2022-07-29T09:38:29.943Z,3.28
2022-07-29T09:41:03.269Z,2.88
2022-07-29T09:43:33.777Z,3.15
2022-07-29T09:46:16.416Z,2.97
2022-07-29T09:48:43.723Z,2.97
2022-07-29T09:51:24.225Z,3.00
2022-07-29T09:53:54.204Z,2.47
2022-07-29T09:56:21.383Z,2.60
2022-07-29T09:58:48.552Z,3.38
2022-07-29T10:01:16.733Z,2.80
2022-07-29T10:03:54.110Z,3.28
2022-07-29T10:06:21.415Z,3.00
2022-07-29T10:08:48.593Z,3.10
2022-07-29T10:11:18.157Z,2.70
2022-07-29T10:13:46.213Z,2.90
2022-07-29T10:16:14.196Z,2.70
2022-07-29T10:18:42.751Z,2.90
2022-07-29T10:21:11.197Z,3.08
2022-07-29T10:23:50.354Z,2.70
2022-07-29T10:26:18.150Z,3.25
2022-07-29T10:28:45.941Z,2.88
2022-07-29T10:31:17.403Z,2.78
2022-07-29T10:34:01.274Z,2.70
2022-07-29T10:36:44.337Z,3.35
2022-07-29T10:39:25.240Z,3.10
2022-07-29T10:42:13.331Z,3.00
2022-07-29T10:44:44.639Z,3.10
2022-07-29T10:47:23.353Z,3.08
2022-07-29T10:49:58.263Z,3.00
2022-07-29T10:52:47.129Z,2.90
2022-07-29T10:55:39.303Z,2.90
2022-07-29T10:58:24.686Z,3.10
2022-07-29T11:00:52.925Z,2.85
2022-07-29T11:03:38.887Z,3.40
2022-07-29T11:06:08.758Z,3.25
2022-07-29T11:08:36.101Z,3.20
2022-07-29T11:11:22.225Z,3.00
2022-07-29T11:13:51.454Z,2.75
2022-07-29T11:16:23.162Z,2.78
2022-07-29T11:19:11.124Z,3.17
2022-07-29T11:22:05.453Z,3.38
2022-07-29T11:24:29.995Z,2.90
2022-07-29T11:27:08.501Z,3.25
2022-07-29T11:29:40.000Z,3.28
2022-07-29T11:32:15.716Z,3.63
2022-07-29T11:34:45.810Z,3.08
2022-07-29T11:37:16.248Z,3.30
2022-07-29T11:40:01.963Z,2.67
2022-07-29T11:42:33.019Z,3.35
2022-07-29T11:45:04.311Z,3.10
2022-07-29T11:47:53.595Z,3.17
2022-07-29T11:50:30.096Z,3.75
2022-07-29T11:52:57.447Z,3.50
2022-07-29T11:55:32.420Z,3.33
2022-07-29T11:58:04.007Z,3.20
2022-07-29T12:00:36.327Z,3.72
2022-07-29T12:03:05.681Z,3.70
2022-07-29T12:05:38.731Z,2.97
2022-07-29T12:08:22.922Z,3.22
2022-07-29T12:10:51.386Z,3.20
2022-07-29T12:13:20.774Z,2.80
2022-07-29T12:16:00.165Z,3.00
2022-07-29T12:18:27.844Z,3.22
2022-07-29T12:20:58.750Z,3.63
2022-07-29T12:23:29.400Z,3.25
2022-07-29T12:26:01.917Z,3.10
2022-07-29T12:28:29.202Z,3.47
2022-07-29T12:30:58.106Z,3.50
2022-07-29T12:33:28.471Z,3.85
2022-07-29T12:36:07.177Z,3.70
2022-07-29T12:38:35.868Z,3.33
2022-07-29T12:41:04.923Z,4.47
2022-07-29T12:43:32.651Z,3.55
2022-07-29T12:46:12.837Z,3.75
2022-07-29T12:48:41.249Z,3.72
2022-07-29T12:51:09.741Z,3.92
2022-07-29T12:53:37.819Z,3.17
2022-07-29T12:56:20.627Z,3.20
2022-07-29T12:58:51.292Z,2.83
2022-07-29T13:01:20.449Z,3.40
2022-07-29T13:03:57.713Z,3.50
2022-07-29T13:06:29.721Z,3.20
2022-07-29T13:09:00.603Z,3.50
2022-07-29T13:11:34.891Z,3.30
2022-07-29T13:14:06.763Z,3.22
2022-07-29T13:16:34.457Z,3.50
2022-07-29T13:19:12.360Z,3.67
2022-07-29T13:21:40.393Z,3.30
2022-07-29T13:24:08.399Z,3.33
2022-07-29T13:26:36.326Z,3.35
2022-07-29T13:29:08.018Z,3.20
2022-07-29T13:31:35.235Z,3.42
2022-07-29T13:34:02.437Z,3.55
2022-07-29T13:36:29.683Z,3.30
2022-07-29T13:38:56.897Z,3.47
2022-07-29T13:41:24.118Z,3.40
2022-07-29T13:43:53.277Z,3.50
2022-07-29T13:46:20.733Z,3.53
2022-07-29T13:48:48.108Z,3.45
2022-07-29T13:51:15.306Z,3.10
2022-07-29T13:53:42.449Z,3.53
2022-07-29T13:56:09.807Z,3.25
2022-07-29T13:58:37.124Z,3.17
2022-07-29T14:01:04.531Z,3.85
2022-07-29T14:03:32.185Z,3.58
2022-07-29T14:06:00.919Z,3.72
2022-07-29T14:08:28.719Z,3.70
2022-07-29T14:10:56.053Z,4.15
2022-07-29T14:13:25.296Z,3.55
2022-07-29T14:18:20.706Z,3.90
2022-07-29T14:20:47.921Z,3.22
2022-07-29T14:23:16.417Z,3.80
2022-07-29T14:25:44.563Z,3.63
2022-07-29T14:28:12.660Z,3.03
2022-07-29T14:30:42.090Z,3.40
2022-07-29T14:33:09.304Z,3.45
2022-07-29T14:35:36.434Z,3.53
2022-07-29T14:38:03.725Z,3.47
2022-07-29T14:40:31.070Z,3.45
2022-07-29T14:42:58.349Z,3.78
2022-07-29T14:45:25.668Z,3.25
2022-07-29T14:47:56.375Z,3.03
2022-07-29T14:50:31.730Z,3.33
2022-07-29T14:52:59.617Z,3.28
2022-07-29T14:55:26.848Z,3.50
2022-07-29T14:58:03.052Z,3.65
2022-07-29T15:00:33.282Z,3.53
2022-07-29T15:03:03.758Z,3.72
2022-07-29T15:05:32.038Z,3.90
2022-07-29T15:07:59.894Z,3.10
2022-07-29T15:10:28.161Z,3.75
2022-07-29T15:12:55.685Z,4.10
2022-07-29T15:15:22.920Z,3.90
2022-07-29T15:17:50.061Z,3.58
2022-07-29T15:20:17.434Z,3.70
2022-07-29T15:22:44.747Z,3.33
2022-07-29T15:25:11.905Z,3.45
2022-07-29T15:27:39.086Z,3.60
2022-07-29T15:30:06.571Z,3.47
2022-07-29T15:32:33.729Z,3.70
2022-07-29T15:35:00.948Z,3.35
2022-07-29T15:37:48.710Z,3.85
2022-07-29T15:40:16.684Z,3.25
2022-07-29T15:42:43.906Z,3.70
2022-07-29T15:45:11.193Z,3.20
2022-07-29T15:47:38.349Z,3.85
2022-07-29T15:50:07.442Z,3.63
2022-07-29T15:52:34.609Z,3.95
2022-07-29T15:55:01.757Z,3.33
2022-07-29T15:57:28.984Z,3.92
2022-07-29T15:59:56.210Z,3.53
2022-07-29T16:02:23.393Z,3.65
2022-07-29T16:04:50.695Z,3.72
2022-07-29T16:07:18.166Z,3.30
2022-07-29T16:09:50.722Z,3.45
2022-07-29T16:12:20.245Z,3.65
2022-07-29T16:14:49.378Z,3.72
2022-07-29T16:17:16.714Z,3.40
2022-07-29T16:19:44.645Z,3.33
2022-07-29T16:22:12.562Z,3.70
2022-07-29T16:24:39.791Z,3.70
2022-07-29T16:27:07.511Z,3.38
2022-07-29T16:29:36.879Z,3.30
2022-07-29T16:32:04.246Z,3.20
2022-07-29T16:34:31.500Z,3.25
2022-07-29T16:36:59.130Z,3.20
2022-07-29T16:39:26.815Z,3.80
2022-07-29T16:41:56.951Z,3.30
2022-07-29T16:44:26.761Z,3.65
2022-07-29T16:46:56.005Z,3.53
2022-07-29T16:49:26.066Z,3.78
2022-07-29T16:51:53.821Z,4.15
2022-07-29T16:54:21.034Z,3.55
2022-07-29T16:56:48.200Z,3.45
2022-07-29T16:59:15.378Z,3.80
2022-07-29T17:01:42.620Z,4.18
2022-07-29T17:04:10.990Z,4.22
2022-07-29T17:06:39.630Z,4.00
2022-07-29T17:09:07.590Z,3.92
2022-07-29T17:11:53.799Z,4.10
2022-07-29T17:14:25.589Z,4.25
2022-07-29T17:17:00.397Z,4.03
2022-07-29T17:19:33.906Z,4.22
2022-07-29T17:22:09.474Z,4.47
2022-07-29T17:24:38.941Z,3.85
2022-07-29T17:27:07.585Z,4.15
2022-07-29T17:29:39.082Z,3.80
2022-07-29T17:32:07.789Z,4.00
2022-07-29T17:34:36.033Z,3.90
2022-07-29T17:37:03.374Z,3.92
2022-07-29T17:39:30.701Z,4.18
2022-07-29T17:41:57.880Z,4.30
2022-07-29T17:44:25.173Z,4.05
2022-07-29T17:46:52.395Z,4.40
2022-07-29T17:49:19.705Z,4.97
2022-07-29T17:51:46.949Z,4.35
2022-07-29T17:54:14.146Z,4.45
2022-07-29T17:56:41.589Z,4.70
2022-07-29T17:59:10.217Z,4.65
2022-07-29T18:01:40.042Z,4.72
2022-07-29T18:04:07.532Z,4.40
2022-07-29T18:06:34.870Z,4.38
2022-07-29T18:09:02.079Z,4.47
2022-07-29T18:11:31.686Z,4.70
2022-07-29T18:13:58.973Z,4.45
2022-07-29T18:18:56.814Z,4.45
2022-07-29T18:21:45.721Z,4.50
2022-07-29T18:24:11.150Z,4.60
2022-07-29T18:26:38.934Z,4.70
2022-07-29T18:29:06.074Z,4.63
2022-07-29T18:31:36.464Z,4.40
2022-07-29T18:34:03.801Z,5.00
2022-07-29T18:36:30.963Z,4.45
2022-07-29T18:38:58.207Z,4.68
2022-07-29T18:41:25.514Z,4.88
2022-07-29T18:43:52.692Z,4.53
2022-07-29T18:46:21.861Z,4.85
2022-07-29T18:48:49.255Z,4.20
2022-07-29T18:51:16.487Z,4.80
2022-07-29T18:53:44.720Z,5.20
2022-07-29T18:56:11.924Z,4.65
2022-07-29T18:58:39.338Z,4.97
2022-07-29T19:01:06.930Z,4.95
2022-07-29T19:03:34.236Z,4.88
2022-07-29T19:06:01.400Z,5.03
2022-07-29T19:08:28.525Z,5.43
2022-07-29T19:10:56.027Z,5.00
2022-07-29T19:13:23.422Z,4.55
2022-07-29T19:15:50.671Z,4.93
2022-07-29T19:18:17.927Z,4.38
2022-07-29T19:20:45.147Z,5.22
2022-07-29T19:23:12.401Z,5.15
2022-07-29T19:25:53.468Z,4.68
2022-07-29T19:28:21.085Z,4.70
2022-07-29T19:30:48.436Z,5.00
2022-07-29T19:33:18.863Z,4.60
2022-07-29T19:35:49.314Z,4.50
2022-07-29T19:38:18.825Z,5.13
2022-07-29T19:40:46.012Z,4.80
2022-07-29T19:43:51.022Z,4.65
2022-07-29T19:46:00.457Z,5.13
2022-07-29T19:48:27.640Z,5.32
2022-07-29T19:50:54.804Z,4.82
2022-07-29T19:53:22.293Z,5.05
2022-07-29T19:55:49.589Z,5.22
2022-07-29T19:58:16.758Z,4.38
2022-07-29T20:00:44.450Z,4.43
2022-07-29T20:03:12.703Z,4.47
2022-07-29T20:05:39.865Z,4.25
2022-07-29T20:08:07.198Z,4.10
2022-07-29T20:10:34.403Z,4.90
2022-07-29T20:13:01.662Z,4.10
2022-07-29T20:15:28.907Z,4.30
2022-07-29T20:17:57.425Z,4.40
2022-07-29T20:20:25.270Z,4.38
2022-07-29T20:22:53.153Z,5.15
2022-07-29T20:25:20.487Z,4.22
2022-07-29T20:27:50.420Z,4.20
2022-07-29T20:30:17.823Z,4.33
2022-07-29T20:32:45.395Z,4.10
2022-07-29T20:35:13.382Z,4.40
2022-07-29T20:37:52.532Z,4.82
2022-07-29T20:40:23.822Z,4.45
2022-07-29T20:42:51.160Z,4.40
2022-07-29T20:45:19.974Z,4.75
2022-07-29T20:47:47.187Z,5.13
2022-07-29T20:50:15.074Z,4.70
2022-07-29T20:52:44.046Z,4.85
2022-07-29T20:55:11.735Z,4.60
2022-07-29T20:57:40.028Z,5.18
2022-07-29T21:00:07.920Z,4.40
2022-07-29T21:02:35.193Z,5.28
2022-07-29T21:05:02.452Z,4.30
2022-07-29T21:07:29.702Z,4.60
2022-07-29T21:09:57.009Z,5.25
2022-07-29T21:12:24.270Z,4.95
2022-07-29T21:14:52.166Z,4.47
2022-07-29T21:17:22.536Z,4.68
2022-07-29T21:19:52.675Z,4.97
2022-07-29T21:22:21.943Z,4.60
2022-07-29T21:24:49.716Z,5.07
2022-07-29T21:27:38.410Z,4.50
2022-07-29T21:30:06.618Z,4.63
2022-07-29T21:32:33.871Z,4.28
2022-07-29T21:35:01.159Z,4.70
2022-07-29T21:37:28.394Z,4.80
2022-07-29T21:39:55.710Z,5.05
2022-07-29T21:42:22.928Z,4.43
2022-07-29T21:44:51.764Z,4.72
2022-07-29T21:47:18.941Z,5.00
2022-07-29T21:49:46.682Z,4.55
2022-07-29T21:52:16.059Z,4.85
2022-07-29T21:54:45.339Z,4.88
2022-07-29T21:57:12.576Z,5.30
2022-07-29T21:59:39.758Z,4.90
2022-07-29T22:02:06.930Z,4.72
2022-07-29T22:04:35.880Z,4.40
2022-07-29T22:07:03.774Z,4.35
2022-07-29T22:09:31.274Z,4.22
2022-07-29T22:11:58.637Z,4.55
2022-07-29T22:14:25.775Z,5.00
2022-07-29T22:16:53.001Z,4.72
2022-07-29T22:19:27.580Z,4.82
2022-07-29T22:21:56.244Z,4.38
2022-07-29T22:24:23.432Z,4.57
2022-07-29T22:26:50.724Z,4.35
2022-07-29T22:29:18.877Z,4.28
2022-07-29T22:31:46.272Z,4.65
2022-07-29T22:34:13.516Z,4.38
2022-07-29T22:36:41.454Z,4.22
2022-07-29T22:39:08.717Z,4.72
2022-07-29T22:41:36.333Z,4.40
2022-07-29T22:44:03.658Z,4.75
2022-07-29T22:46:31.109Z,4.05
2022-07-29T22:48:58.562Z,4.20
2022-07-29T22:51:26.049Z,4.13
2022-07-29T22:53:53.313Z,4.15
2022-07-29T22:56:21.074Z,4.40
2022-07-29T22:58:49.045Z,4.53
2022-07-29T23:01:16.868Z,4.07
2022-07-29T23:04:04.247Z,4.18
2022-07-29T23:06:31.434Z,3.78
2022-07-29T23:08:58.598Z,4.53
2022-07-29T23:11:25.940Z,4.35
2022-07-29T23:13:53.105Z,4.10
2022-07-29T23:16:26.370Z,3.72
2022-07-29T23:18:54.397Z,4.10
2022-07-29T23:21:21.670Z,4.25
2022-07-29T23:23:49.135Z,4.32
2022-07-29T23:26:17.049Z,4.15
2022-07-29T23:28:47.279Z,5.00
2022-07-29T23:31:14.586Z,4.65
2022-07-29T23:33:42.025Z,5.57
2022-07-29T23:36:09.375Z,5.15
2022-07-29T23:38:40.808Z,5.43
2022-07-29T23:41:09.845Z,4.95
2022-07-29T23:43:37.847Z,4.53
2022-07-29T23:46:06.402Z,5.03
2022-07-29T23:48:34.703Z,4.70
2022-07-29T23:51:01.894Z,4.63
2022-07-29T23:53:29.361Z,3.90
2022-07-29T23:55:56.963Z,4.63
2022-07-29T23:58:24.250Z,4.85
